Jacquet River, Canada
Current Conditions -  °F | °C
As of 10:00 AM on Thursday 29 Jan 2015 (Local Time) from CZBF Reporting Station
Clear Clear  
Wind Chill:   Ceiling: Unl
Heat Index: 16°   Visibility: 15mi
Dew Point:   Wind: 6mph
Humidity: 58%   Direction: 280°W
Pressure: 30.22"   Gusts: NA
Location:  47.92°N, 66°W
Report Text: CZBF 291400Z 28005KT 15SM SKC M09/M16 A3022 RMK SLP240
Loading
Personal Weather Stations






























Interactive Weather Map New forecast layout! Learn more

10-Day Weather Forecast

Advertisements
Track Severe Weather on mobile